createdAt,value
2022-08-30T00:00:43.961Z,68.15
2022-08-30T00:01:46.535Z,68.68
2022-08-30T00:02:48.750Z,69.43
2022-08-30T00:03:52.059Z,69.42
2022-08-30T00:04:54.530Z,68.72
2022-08-30T00:05:57.384Z,68.52
2022-08-30T00:06:59.923Z,68.13
2022-08-30T00:08:02.694Z,68.64
2022-08-30T00:09:04.824Z,67.38
2022-08-30T00:10:08.340Z,67.64
2022-08-30T00:11:14.024Z,67.89
2022-08-30T00:12:16.368Z,67.36
2022-08-30T00:13:19.306Z,66.93
2022-08-30T00:14:21.335Z,67.74
2022-08-30T00:15:24.778Z,68.54
2022-08-30T00:16:28.728Z,68.55
2022-08-30T00:17:30.823Z,67.89
2022-08-30T00:18:36.410Z,68.67
2022-08-30T00:19:38.632Z,68.85
2022-08-30T00:20:41.572Z,68.68
2022-08-30T00:21:43.863Z,69.12
2022-08-30T00:22:47.470Z,70.02
2022-08-30T00:23:50.108Z,69.57
2022-08-30T00:24:52.271Z,69.84
2022-08-30T00:25:54.439Z,69.65
2022-08-30T00:26:56.690Z,70.38
2022-08-30T00:27:58.733Z,70.05
2022-08-30T00:29:00.912Z,70.07
2022-08-30T00:30:05.267Z,69.90
2022-08-30T00:31:07.580Z,70.31
2022-08-30T00:32:09.952Z,70.53
2022-08-30T00:33:13.690Z,70.98
2022-08-30T00:34:16.083Z,71.15
2022-08-30T00:35:18.460Z,71.49
2022-08-30T00:36:21.357Z,71.90
2022-08-30T00:37:25.668Z,72.09
2022-08-30T00:38:27.791Z,71.65
2022-08-30T00:39:30.333Z,71.98
2022-08-30T00:40:33.517Z,72.06
2022-08-30T00:41:35.962Z,72.00
2022-08-30T00:42:39.103Z,71.91
2022-08-30T00:43:41.542Z,72.83
2022-08-30T00:44:44.943Z,72.37
2022-08-30T00:45:48.245Z,71.73
2022-08-30T00:46:50.497Z,71.53
2022-08-30T00:47:53.253Z,71.43
2022-08-30T00:48:56.781Z,71.71
2022-08-30T00:49:58.872Z,70.98
2022-08-30T00:51:04.580Z,70.50
2022-08-30T00:52:08.257Z,70.94
2022-08-30T00:53:20.176Z,70.91
2022-08-30T00:54:24.264Z,70.82
2022-08-30T00:55:29.056Z,70.89
2022-08-30T00:56:33.462Z,69.93
2022-08-30T00:57:35.954Z,70.53
2022-08-30T00:58:41.873Z,71.16
2022-08-30T00:59:47.255Z,71.02
2022-08-30T01:00:53.033Z,70.42
2022-08-30T01:01:55.717Z,71.11
2022-08-30T01:02:58.165Z,71.01
2022-08-30T01:04:01.316Z,72.00
2022-08-30T01:05:08.593Z,72.72
2022-08-30T01:06:14.790Z,72.07
2022-08-30T01:07:17.827Z,71.35
2022-08-30T01:08:20.466Z,70.93
2022-08-30T01:09:23.168Z,70.73
2022-08-30T01:10:27.132Z,71.61
2022-08-30T01:11:32.436Z,71.04
2022-08-30T01:12:35.545Z,71.90
2022-08-30T01:13:38.253Z,71.53
2022-08-30T01:14:40.424Z,71.51
2022-08-30T01:15:44.978Z,71.71
2022-08-30T01:16:49.670Z,71.92
2022-08-30T01:17:52.177Z,71.30
2022-08-30T01:18:58.678Z,70.96
2022-08-30T01:20:04.549Z,70.92
2022-08-30T01:21:19.427Z,70.65
2022-08-30T01:22:25.102Z,71.57
2022-08-30T01:23:29.286Z,71.24
2022-08-30T01:24:32.678Z,71.96
2022-08-30T01:25:36.428Z,71.97
2022-08-30T01:26:38.932Z,72.35
2022-08-30T01:27:47.586Z,73.09
2022-08-30T01:28:53.255Z,72.59
2022-08-30T01:29:57.540Z,72.69
2022-08-30T01:30:59.915Z,73.18
2022-08-30T01:32:04.311Z,72.82
2022-08-30T01:33:07.008Z,72.23
2022-08-30T01:34:09.069Z,72.33
2022-08-30T01:35:13.297Z,73.02
2022-08-30T01:36:17.864Z,73.59
2022-08-30T01:37:23.510Z,73.26
2022-08-30T01:38:29.174Z,72.96
2022-08-30T01:39:32.392Z,73.03
2022-08-30T01:40:35.387Z,72.43
2022-08-30T01:41:37.701Z,72.24
2022-08-30T01:42:41.041Z,72.31
2022-08-30T01:43:44.103Z,73.14
2022-08-30T01:44:46.827Z,73.70
2022-08-30T01:45:49.424Z,72.80
2022-08-30T01:46:51.612Z,73.77
2022-08-30T01:47:53.652Z,74.83
2022-08-30T01:48:57.415Z,75.06
2022-08-30T01:49:59.936Z,73.75
2022-08-30T01:51:02.373Z,73.48
2022-08-30T01:52:06.213Z,74.21
2022-08-30T01:53:09.063Z,73.21
2022-08-30T01:54:13.062Z,73.58
2022-08-30T01:55:15.198Z,74.94
2022-08-30T01:56:20.086Z,74.73
2022-08-30T01:57:23.199Z,75.10
2022-08-30T01:58:25.287Z,75.26
2022-08-30T01:59:27.515Z,75.13
2022-08-30T02:00:30.425Z,75.15
2022-08-30T02:01:36.027Z,73.83
2022-08-30T02:02:38.386Z,73.48
2022-08-30T02:03:43.586Z,73.26
2022-08-30T02:04:46.453Z,72.47
2022-08-30T02:05:48.778Z,72.94
2022-08-30T02:06:51.552Z,73.46
2022-08-30T02:07:53.759Z,73.45
2022-08-30T02:08:55.823Z,73.27
2022-08-30T02:09:57.861Z,73.70
2022-08-30T02:11:00.652Z,74.03
2022-08-30T02:12:04.418Z,74.33
2022-08-30T02:13:06.643Z,73.69
2022-08-30T02:14:08.692Z,73.08
2022-08-30T02:15:11.815Z,73.07
2022-08-30T02:16:17.704Z,72.37
2022-08-30T02:17:19.851Z,71.96
2022-08-30T02:18:23.621Z,72.58
2022-08-30T02:19:25.830Z,73.12
2022-08-30T02:20:28.018Z,74.56
2022-08-30T02:21:30.871Z,75.79
2022-08-30T02:22:34.987Z,75.79
2022-08-30T02:23:37.427Z,77.18
2022-08-30T02:24:39.448Z,77.10
2022-08-30T02:25:41.538Z,78.03
2022-08-30T02:26:43.719Z,77.76
2022-08-30T02:27:45.792Z,78.07
2022-08-30T02:28:50.057Z,77.33
2022-08-30T02:29:52.565Z,76.92
2022-08-30T02:30:55.298Z,77.26
2022-08-30T02:31:57.384Z,77.41
2022-08-30T02:32:59.645Z,77.14
2022-08-30T02:34:02.826Z,76.99
2022-08-30T02:35:05.810Z,77.20
2022-08-30T02:36:08.711Z,76.99
2022-08-30T02:37:10.935Z,77.49
2022-08-30T02:38:13.477Z,79.04
2022-08-30T02:39:16.447Z,78.86
2022-08-30T02:40:19.095Z,78.23
2022-08-30T02:41:21.421Z,77.83
2022-08-30T02:42:23.486Z,77.51
2022-08-30T02:43:25.884Z,77.16
2022-08-30T02:44:27.940Z,75.98
2022-08-30T02:45:30.033Z,76.87
2022-08-30T02:46:34.442Z,77.99
2022-08-30T02:47:37.086Z,76.70
2022-08-30T02:48:39.369Z,75.79
2022-08-30T02:49:41.499Z,75.20
2022-08-30T02:50:47.206Z,74.86
2022-08-30T02:51:50.043Z,75.50
2022-08-30T02:52:52.164Z,75.87
2022-08-30T02:53:56.257Z,75.92
2022-08-30T02:54:59.278Z,75.48
2022-08-30T02:56:02.592Z,76.12
2022-08-30T02:57:05.943Z,75.30
2022-08-30T02:58:08.479Z,76.16
2022-08-30T02:59:10.504Z,76.77
2022-08-30T03:00:16.333Z,77.24
2022-08-30T03:01:19.080Z,77.73
2022-08-30T03:02:21.393Z,78.15
2022-08-30T03:03:23.688Z,78.74
2022-08-30T03:04:26.738Z,78.78
2022-08-30T03:05:30.853Z,79.57
2022-08-30T03:06:33.763Z,80.08
2022-08-30T03:07:35.954Z,80.28
2022-08-30T03:08:39.304Z,80.39
2022-08-30T03:09:41.410Z,80.86
2022-08-30T03:10:44.339Z,80.68
2022-08-30T03:11:46.383Z,80.52
2022-08-30T03:12:48.414Z,79.84
2022-08-30T03:13:50.477Z,80.79
2022-08-30T03:14:52.936Z,82.35
2022-08-30T03:15:55.578Z,82.28
2022-08-30T03:16:58.502Z,81.62
2022-08-30T03:18:01.596Z,81.46
2022-08-30T03:19:03.760Z,81.59
2022-08-30T03:20:08.371Z,81.63
2022-08-30T03:21:13.266Z,81.47
2022-08-30T03:22:15.768Z,81.38
2022-08-30T03:23:21.670Z,81.72
2022-08-30T03:24:22.325Z,80.46
2022-08-30T03:25:24.542Z,80.46
2022-08-30T03:26:28.135Z,81.28
2022-08-30T03:27:30.599Z,82.22
2022-08-30T03:28:32.869Z,82.91
2022-08-30T03:29:35.190Z,82.48
2022-08-30T03:30:37.450Z,83.26
2022-08-30T03:31:52.626Z,83.89
2022-08-30T03:32:43.842Z,83.86
2022-08-30T03:33:45.891Z,84.36
2022-08-30T03:34:48.381Z,83.99
2022-08-30T03:35:50.437Z,83.39
2022-08-30T03:36:55.474Z,82.89
2022-08-30T03:37:58.619Z,83.62
2022-08-30T03:39:00.778Z,83.00
2022-08-30T03:40:05.584Z,82.54
2022-08-30T03:41:09.168Z,81.58
2022-08-30T03:42:13.176Z,80.98
2022-08-30T03:43:16.111Z,81.48
2022-08-30T03:44:18.978Z,81.94
2022-08-30T03:45:22.175Z,81.27
2022-08-30T03:46:27.033Z,81.35
2022-08-30T03:47:31.039Z,81.46
2022-08-30T03:48:33.198Z,81.99
2022-08-30T03:49:35.716Z,83.12
2022-08-30T03:50:38.104Z,84.04
2022-08-30T03:51:40.169Z,84.72
2022-08-30T03:52:42.782Z,84.03
2022-08-30T03:53:44.870Z,84.09
2022-08-30T03:54:46.955Z,83.95
2022-08-30T03:55:49.273Z,83.74
2022-08-30T03:56:55.312Z,83.51
2022-08-30T03:57:57.711Z,83.12
2022-08-30T03:59:00.200Z,83.15
2022-08-30T04:00:04.739Z,82.74
2022-08-30T04:01:08.797Z,82.23
2022-08-30T04:02:11.181Z,82.71
2022-08-30T04:03:13.441Z,82.74
2022-08-30T04:04:20.525Z,82.37
2022-08-30T04:05:20.831Z,82.28
2022-08-30T04:06:23.560Z,82.38
2022-08-30T04:07:25.703Z,83.14
2022-08-30T04:08:27.862Z,84.29
2022-08-30T04:09:30.044Z,84.14
2022-08-30T04:10:32.530Z,83.75
2022-08-30T04:11:34.597Z,82.63
2022-08-30T04:12:38.899Z,81.94
2022-08-30T04:13:41.840Z,81.84
2022-08-30T04:14:44.054Z,82.24
2022-08-30T04:15:46.101Z,81.67
2022-08-30T04:16:48.762Z,81.81
2022-08-30T04:17:50.918Z,81.68
2022-08-30T04:18:53.575Z,81.20
2022-08-30T04:19:55.725Z,81.58
2022-08-30T04:20:58.029Z,83.04
2022-08-30T04:22:00.698Z,82.82
2022-08-30T04:23:04.467Z,82.55
2022-08-30T04:24:06.878Z,82.91
2022-08-30T04:25:15.310Z,83.89
2022-08-30T04:26:15.677Z,83.51
2022-08-30T04:27:18.204Z,82.44
2022-08-30T04:28:20.453Z,82.57
2022-08-30T04:29:22.333Z,81.07
2022-08-30T04:30:25.002Z,80.74
2022-08-30T04:31:27.373Z,81.59
2022-08-30T04:32:29.605Z,80.63
2022-08-30T04:33:35.062Z,79.19
2022-08-30T04:34:37.627Z,78.46
2022-08-30T04:35:41.818Z,78.12
2022-08-30T04:36:48.196Z,78.36
2022-08-30T04:37:48.777Z,80.67
2022-08-30T04:38:50.767Z,83.12
2022-08-30T04:39:57.850Z,83.98
2022-08-30T04:41:01.000Z,83.52
2022-08-30T04:42:03.597Z,83.49
2022-08-30T04:43:05.665Z,83.47
2022-08-30T04:44:07.822Z,84.12
2022-08-30T04:45:14.536Z,84.68
2022-08-30T04:46:18.780Z,86.25
2022-08-30T04:47:21.130Z,86.86
2022-08-30T04:48:23.185Z,86.71
2022-08-30T04:49:25.217Z,85.64
2022-08-30T04:50:27.612Z,84.12
2022-08-30T04:51:31.000Z,83.59
2022-08-30T04:52:34.075Z,84.71
2022-08-30T04:53:36.439Z,85.56
2022-08-30T04:54:38.482Z,84.02
2022-08-30T04:55:41.984Z,82.33
2022-08-30T04:56:45.265Z,81.56
2022-08-30T04:57:48.681Z,81.57
2022-08-30T04:58:53.575Z,80.75
2022-08-30T04:59:56.208Z,81.54
2022-08-30T05:00:58.550Z,82.36
2022-08-30T05:02:01.728Z,83.30
2022-08-30T05:03:06.708Z,82.42
2022-08-30T05:04:08.837Z,82.28
2022-08-30T05:05:11.068Z,81.13
2022-08-30T05:06:16.764Z,80.47
2022-08-30T05:07:19.430Z,80.13
2022-08-30T05:08:24.929Z,80.55
2022-08-30T05:09:27.255Z,81.54
2022-08-30T05:10:29.836Z,82.29
2022-08-30T05:11:32.205Z,82.25
2022-08-30T05:12:34.285Z,81.28
2022-08-30T05:13:36.992Z,82.77
2022-08-30T05:14:39.381Z,80.95
2022-08-30T05:15:42.321Z,79.46
2022-08-30T05:16:44.594Z,78.72
2022-08-30T05:17:46.713Z,79.60
2022-08-30T05:18:50.278Z,79.84
2022-08-30T05:19:52.448Z,80.15
2022-08-30T05:21:03.377Z,79.37
2022-08-30T05:22:05.970Z,78.22
2022-08-30T05:23:10.524Z,79.50
2022-08-30T05:24:12.760Z,81.85
2022-08-30T05:25:16.998Z,81.90
2022-08-30T05:26:23.313Z,81.42
2022-08-30T05:27:27.308Z,80.84
2022-08-30T05:28:29.381Z,81.12
2022-08-30T05:29:31.753Z,80.89
2022-08-30T05:30:36.588Z,79.79
2022-08-30T05:31:39.124Z,78.43
2022-08-30T05:32:42.187Z,77.23
2022-08-30T05:33:46.129Z,77.79
2022-08-30T05:34:48.251Z,78.57
2022-08-30T05:35:52.346Z,79.84
2022-08-30T05:36:54.381Z,79.45
2022-08-30T05:37:56.417Z,78.86
2022-08-30T05:38:59.241Z,77.44
2022-08-30T05:40:01.931Z,79.07
2022-08-30T05:41:10.871Z,78.62
2022-08-30T05:42:10.790Z,76.92
2022-08-30T05:43:14.824Z,76.01
2022-08-30T05:44:17.389Z,75.29
2022-08-30T05:45:19.614Z,74.77
2022-08-30T05:46:24.538Z,75.05
2022-08-30T05:47:26.921Z,75.55
2022-08-30T05:48:28.995Z,76.67
2022-08-30T05:49:31.493Z,77.03
2022-08-30T05:50:36.903Z,78.68
2022-08-30T05:51:43.066Z,77.94
2022-08-30T05:52:42.966Z,75.93
2022-08-30T05:53:46.370Z,76.34
2022-08-30T05:54:53.907Z,76.59
2022-08-30T05:55:57.141Z,76.56
2022-08-30T05:56:59.346Z,75.44
2022-08-30T05:58:01.424Z,74.74
2022-08-30T05:59:05.461Z,75.33
2022-08-30T06:00:11.694Z,75.14
2022-08-30T06:01:24.365Z,74.21
2022-08-30T06:02:26.640Z,73.46
2022-08-30T06:03:28.666Z,74.27
2022-08-30T06:04:31.034Z,73.68
2022-08-30T06:05:33.529Z,73.47
2022-08-30T06:06:41.447Z,73.17
2022-08-30T06:07:43.609Z,72.72
2022-08-30T06:08:45.986Z,72.48
2022-08-30T06:09:48.038Z,71.62
2022-08-30T06:10:50.326Z,72.66
2022-08-30T06:11:52.376Z,74.32
2022-08-30T06:12:54.452Z,74.22
2022-08-30T06:13:56.777Z,74.18
2022-08-30T06:14:59.807Z,74.51
2022-08-30T06:16:02.762Z,74.82
2022-08-30T06:17:06.046Z,74.01
2022-08-30T06:18:08.168Z,73.84
2022-08-30T06:19:11.274Z,73.60
2022-08-30T06:20:14.416Z,73.84
2022-08-30T06:21:18.889Z,73.69
2022-08-30T06:22:21.481Z,74.21
2022-08-30T06:23:24.958Z,75.22
2022-08-30T06:24:41.221Z,75.22
2022-08-30T06:25:42.024Z,75.32
2022-08-30T06:26:42.138Z,75.88
2022-08-30T06:27:44.245Z,77.22
2022-08-30T06:28:46.817Z,77.05
2022-08-30T06:29:51.729Z,76.54
2022-08-30T06:30:53.868Z,76.33
2022-08-30T06:31:57.502Z,76.27
2022-08-30T06:33:00.302Z,75.32
2022-08-30T06:34:03.781Z,74.14
2022-08-30T06:35:08.262Z,73.37
2022-08-30T06:36:15.314Z,72.60
2022-08-30T06:37:29.125Z,72.31
2022-08-30T06:38:21.343Z,72.32
2022-08-30T06:39:23.388Z,72.68
2022-08-30T06:40:26.572Z,72.81
2022-08-30T06:41:31.094Z,72.44
2022-08-30T06:42:33.288Z,71.89
2022-08-30T06:43:35.846Z,72.03
2022-08-30T06:44:38.390Z,71.06
2022-08-30T06:45:40.758Z,70.81
2022-08-30T06:46:44.009Z,71.52
2022-08-30T06:47:47.988Z,70.25
2022-08-30T06:48:51.773Z,69.28
2022-08-30T06:49:54.710Z,69.92
2022-08-30T06:50:57.546Z,70.13
2022-08-30T06:51:59.715Z,70.86
2022-08-30T06:53:02.762Z,70.98
2022-08-30T06:54:06.416Z,71.60
2022-08-30T06:55:14.119Z,71.60
2022-08-30T06:56:19.469Z,71.38
2022-08-30T06:57:21.685Z,70.78
2022-08-30T06:58:23.955Z,70.81
2022-08-30T06:59:27.578Z,70.45
2022-08-30T07:00:30.313Z,69.15
2022-08-30T07:01:33.651Z,70.12
2022-08-30T07:02:39.084Z,69.78
2022-08-30T07:03:42.345Z,69.10
2022-08-30T07:04:45.420Z,68.83
2022-08-30T07:05:49.011Z,68.86
2022-08-30T07:06:51.372Z,69.56
2022-08-30T07:07:53.631Z,69.77
2022-08-30T07:08:56.417Z,69.74
2022-08-30T07:10:00.638Z,69.56
2022-08-30T07:11:04.612Z,69.37
2022-08-30T07:12:07.289Z,68.45
2022-08-30T07:13:09.816Z,67.82
2022-08-30T07:14:12.931Z,67.82
2022-08-30T07:15:15.540Z,68.40
2022-08-30T07:16:20.769Z,67.27
2022-08-30T07:17:22.980Z,68.27
2022-08-30T07:18:25.239Z,68.67
2022-08-30T07:19:27.597Z,69.12
2022-08-30T07:20:39.911Z,69.08
2022-08-30T07:21:41.487Z,69.03
2022-08-30T07:22:43.591Z,68.31
2022-08-30T07:23:50.252Z,67.85
2022-08-30T07:24:51.349Z,67.85
2022-08-30T07:25:53.413Z,67.89
2022-08-30T07:26:55.784Z,67.03
2022-08-30T07:27:57.971Z,67.23
2022-08-30T07:29:00.740Z,66.26
2022-08-30T07:30:05.244Z,66.32
2022-08-30T07:31:10.647Z,67.10
2022-08-30T07:32:12.643Z,66.96
2022-08-30T07:33:14.650Z,66.70
2022-08-30T07:34:17.970Z,66.15
2022-08-30T07:35:20.182Z,65.83
2022-08-30T07:36:24.502Z,66.17
2022-08-30T07:37:26.639Z,64.92
2022-08-30T07:38:28.899Z,64.33
2022-08-30T07:39:34.802Z,64.61
2022-08-30T07:40:37.785Z,64.95
2022-08-30T07:41:40.210Z,64.82
2022-08-30T07:42:42.972Z,64.83
2022-08-30T07:43:45.354Z,64.74
2022-08-30T07:44:47.688Z,64.73
2022-08-30T07:45:50.845Z,64.74
2022-08-30T07:46:53.190Z,64.57
2022-08-30T07:47:56.463Z,64.48
2022-08-30T07:49:00.013Z,64.25
2022-08-30T07:50:07.336Z,62.90
2022-08-30T07:52:23.508Z,62.94
2022-08-30T07:53:27.118Z,63.18
2022-08-30T07:54:29.328Z,63.10
2022-08-30T07:55:31.527Z,63.10
2022-08-30T07:56:34.167Z,62.20
2022-08-30T07:57:37.581Z,61.39
2022-08-30T07:58:39.997Z,61.55
2022-08-30T07:59:42.059Z,61.11
2022-08-30T08:00:44.314Z,60.82
2022-08-30T08:01:47.284Z,60.97
2022-08-30T08:02:49.538Z,61.32
2022-08-30T08:03:51.922Z,61.32
2022-08-30T08:04:55.033Z,61.21
2022-08-30T08:05:57.642Z,60.94
2022-08-30T08:06:59.803Z,61.76
2022-08-30T08:08:02.485Z,60.72
2022-08-30T08:09:05.367Z,61.33
2022-08-30T08:10:08.815Z,59.17
2022-08-30T08:11:20.491Z,58.69
2022-08-30T08:12:22.524Z,58.75
2022-08-30T08:13:28.023Z,59.10
2022-08-30T08:14:29.605Z,60.09
2022-08-30T08:15:32.236Z,59.05
2022-08-30T08:16:36.634Z,59.01
2022-08-30T08:17:39.159Z,59.05
2022-08-30T08:18:41.348Z,58.94
2022-08-30T08:19:43.616Z,59.57
2022-08-30T08:20:45.967Z,58.92
2022-08-30T08:21:50.456Z,57.47
2022-08-30T08:22:52.716Z,58.26
2022-08-30T08:23:55.267Z,58.34
2022-08-30T08:24:58.470Z,56.62
2022-08-30T08:26:01.288Z,55.33
2022-08-30T08:27:03.538Z,56.85
2022-08-30T08:28:05.725Z,54.86
2022-08-30T08:29:08.934Z,55.26
2022-08-30T08:30:12.194Z,56.62
2022-08-30T08:31:23.619Z,56.42
2022-08-30T08:32:27.604Z,55.28
2022-08-30T08:33:29.828Z,55.78
2022-08-30T08:34:31.998Z,54.00
2022-08-30T08:35:34.134Z,54.01
2022-08-30T08:36:37.131Z,54.32
2022-08-30T08:37:40.794Z,55.87
2022-08-30T08:38:42.834Z,55.63
2022-08-30T08:39:45.016Z,53.56
2022-08-30T08:41:12.035Z,55.42
2022-08-30T08:42:20.971Z,54.71
2022-08-30T08:43:27.152Z,54.67
2022-08-30T08:44:50.544Z,54.49
2022-08-30T08:46:17.443Z,52.15
2022-08-30T08:47:32.046Z,52.67
2022-08-30T08:48:59.158Z,53.28
2022-08-30T08:49:48.180Z,52.51
2022-08-30T08:50:51.224Z,52.85
2022-08-30T08:51:56.086Z,53.14
2022-08-30T08:53:36.097Z,52.61
2022-08-30T08:54:33.633Z,51.42
2022-08-30T08:55:41.472Z,52.39
2022-08-30T08:56:43.755Z,52.15
2022-08-30T08:57:46.842Z,50.83
2022-08-30T08:58:53.575Z,50.99
2022-08-30T08:59:56.342Z,51.34
2022-08-30T09:00:58.792Z,53.58
2022-08-30T09:02:04.567Z,50.62
2022-08-30T09:03:10.276Z,51.70
2022-08-30T09:04:16.110Z,49.63
2022-08-30T09:05:21.548Z,49.15
2022-08-30T09:06:47.319Z,47.95
2022-08-30T09:07:59.137Z,48.35
2022-08-30T09:09:01.273Z,49.03
2022-08-30T09:10:05.018Z,49.16
2022-08-30T09:11:07.657Z,49.80
2022-08-30T09:12:11.333Z,48.97
2022-08-30T09:13:14.088Z,48.97
2022-08-30T09:14:20.766Z,48.65
2022-08-30T09:15:26.505Z,49.48
2022-08-30T09:16:50.487Z,47.89
2022-08-30T09:18:01.695Z,48.27
2022-08-30T09:19:05.297Z,47.69
2022-08-30T09:20:10.575Z,48.11
2022-08-30T09:21:16.924Z,47.77
2022-08-30T09:22:26.081Z,49.42
2022-08-30T09:23:28.569Z,47.18
2022-08-30T09:24:39.999Z,46.63
2022-08-30T09:25:53.327Z,49.49
2022-08-30T09:26:56.220Z,49.77
2022-08-30T09:28:02.168Z,44.43
2022-08-30T09:29:06.634Z,44.92
2022-08-30T09:30:21.508Z,47.52
2022-08-30T09:31:28.127Z,44.36
2022-08-30T09:32:33.852Z,46.34
2022-08-30T09:33:37.158Z,44.29
2022-08-30T09:34:43.097Z,44.38
2022-08-30T09:35:50.263Z,45.66
2022-08-30T09:36:54.484Z,46.01
2022-08-30T09:38:00.904Z,44.13
2022-08-30T09:39:08.892Z,44.95
2022-08-30T09:40:30.017Z,47.07
2022-08-30T09:41:42.832Z,46.14
2022-08-30T09:43:04.716Z,45.27
2022-08-30T09:44:20.774Z,44.35
2022-08-30T09:45:29.429Z,43.26
2022-08-30T09:46:33.508Z,42.98
2022-08-30T09:47:41.711Z,41.41
2022-08-30T09:48:46.881Z,40.80
2022-08-30T09:49:54.226Z,41.74
2022-08-30T09:51:15.142Z,41.29
2022-08-30T09:52:26.677Z,39.75
2022-08-30T09:53:33.891Z,41.90
2022-08-30T09:56:07.062Z,40.44
2022-08-30T09:57:14.608Z,39.73
2022-08-30T09:58:43.190Z,42.18
2022-08-30T10:00:03.997Z,42.47
2022-08-30T10:01:16.314Z,41.79
2022-08-30T10:02:44.486Z,44.02
2022-08-30T10:03:59.174Z,44.37
2022-08-30T10:05:13.573Z,43.22
2022-08-30T10:06:30.778Z,40.07
2022-08-30T10:07:59.873Z,39.82
2022-08-30T10:09:32.938Z,43.01
2022-08-30T10:10:48.732Z,43.34
2022-08-30T10:13:23.406Z,41.32
2022-08-30T10:14:47.309Z,41.84
2022-08-30T10:15:59.625Z,42.50
2022-08-30T10:17:14.039Z,40.20
2022-08-30T10:19:57.819Z,43.55
2022-08-30T10:21:10.393Z,42.22
2022-08-30T10:22:17.060Z,42.34
2022-08-30T10:23:23.635Z,42.45
2022-08-30T10:24:33.695Z,42.56
2022-08-30T10:25:51.863Z,43.87
2022-08-30T10:26:57.992Z,41.80
2022-08-30T10:28:24.813Z,44.33
2022-08-30T10:29:43.441Z,42.29
2022-08-30T10:31:01.949Z,43.51
2022-08-30T10:33:57.054Z,42.33
2022-08-30T10:35:11.744Z,42.73
2022-08-30T10:36:18.525Z,42.40
2022-08-30T10:37:24.162Z,43.30
2022-08-30T10:38:36.243Z,42.54
2022-08-30T10:39:56.717Z,42.94
2022-08-30T10:41:20.703Z,44.09
2022-08-30T10:42:39.379Z,43.86
2022-08-30T10:43:57.924Z,43.57
2022-08-30T10:45:09.054Z,42.20
2022-08-30T10:46:28.385Z,42.29
2022-08-30T10:47:41.114Z,42.86
2022-08-30T10:48:47.388Z,43.01
2022-08-30T10:49:53.614Z,42.12
2022-08-30T10:51:00.082Z,42.72
2022-08-30T10:52:23.843Z,43.61
2022-08-30T10:53:31.438Z,42.91
2022-08-30T10:54:56.831Z,43.40
2022-08-30T10:56:14.035Z,42.58
2022-08-30T10:57:17.648Z,41.87
2022-08-30T10:58:20.244Z,41.86
2022-08-30T10:59:23.979Z,42.11
2022-08-30T11:00:48.957Z,41.79
2022-08-30T11:02:28.027Z,42.05
2022-08-30T11:04:01.654Z,43.53
2022-08-30T11:05:25.245Z,42.90
2022-08-30T11:06:46.642Z,41.42
2022-08-30T11:08:22.132Z,41.16
2022-08-30T11:09:38.036Z,41.71
2022-08-30T11:10:51.087Z,41.81
2022-08-30T11:12:08.572Z,41.64
2022-08-30T11:13:18.134Z,41.17
2022-08-30T11:14:25.575Z,41.19
2022-08-30T11:15:33.084Z,42.66
2022-08-30T11:16:44.263Z,41.52
2022-08-30T11:17:56.676Z,41.29
2022-08-30T11:18:59.321Z,40.25
2022-08-30T11:20:04.729Z,40.44
2022-08-30T11:21:36.330Z,41.92
2022-08-30T11:22:39.494Z,41.55
2022-08-30T11:23:43.421Z,41.18
2022-08-30T11:25:14.237Z,41.49
2022-08-30T11:26:37.800Z,41.87
2022-08-30T11:27:44.077Z,42.18
2022-08-30T11:28:49.807Z,40.33
2022-08-30T11:29:52.452Z,40.29
2022-08-30T11:30:59.717Z,39.70
2022-08-30T11:32:15.168Z,39.50
2022-08-30T11:33:30.622Z,41.16
2022-08-30T11:34:48.447Z,38.82
2022-08-30T11:35:53.296Z,39.17
2022-08-30T11:37:02.781Z,40.89
2022-08-30T11:38:27.093Z,38.58
2022-08-30T11:39:45.710Z,39.09
2022-08-30T11:40:51.223Z,40.88
2022-08-30T11:42:12.020Z,40.70
2022-08-30T11:43:38.145Z,39.13
2022-08-30T11:44:40.368Z,38.43
2022-08-30T11:45:44.512Z,38.68
2022-08-30T11:46:51.177Z,38.68
2022-08-30T11:48:00.018Z,37.39
2022-08-30T11:49:14.671Z,39.97
2022-08-30T11:50:48.177Z,38.11
2022-08-30T11:52:27.713Z,38.45
2022-08-30T11:53:28.641Z,40.21
2022-08-30T11:54:40.435Z,38.94
2022-08-30T11:56:03.118Z,37.29
2022-08-30T11:57:15.851Z,38.07
2022-08-30T11:58:33.665Z,38.51
2022-08-30T11:59:54.202Z,38.89
2022-08-30T12:01:41.802Z,39.00
2022-08-30T12:02:44.732Z,39.33
2022-08-30T12:03:56.949Z,38.60
2022-08-30T12:04:59.067Z,38.90
2022-08-30T12:06:04.082Z,38.84
2022-08-30T12:07:08.441Z,38.02
2022-08-30T12:08:30.255Z,37.12
2022-08-30T12:09:38.952Z,37.32
2022-08-30T12:10:44.502Z,38.11
2022-08-30T12:11:59.035Z,37.88
2022-08-30T12:13:02.456Z,38.21
2022-08-30T12:14:09.290Z,38.21
2022-08-30T12:15:29.672Z,37.94
2022-08-30T12:16:42.604Z,38.96
2022-08-30T12:17:53.034Z,37.63
2022-08-30T12:18:59.319Z,39.10
2022-08-30T12:20:09.528Z,39.34
2022-08-30T12:21:27.107Z,37.24
2022-08-30T12:22:29.771Z,37.33
2022-08-30T12:24:03.779Z,36.14
2022-08-30T12:25:15.782Z,35.99
2022-08-30T12:26:26.265Z,36.10
2022-08-30T12:27:33.153Z,36.72
2022-08-30T12:28:35.498Z,35.41
2022-08-30T12:29:42.779Z,36.18
2022-08-30T12:30:46.833Z,36.23
2022-08-30T12:31:58.557Z,36.71
2022-08-30T12:33:00.816Z,37.15
2022-08-30T12:34:03.001Z,37.90
2022-08-30T12:35:07.522Z,36.88
2022-08-30T12:36:37.333Z,37.49
2022-08-30T12:37:42.159Z,36.77
2022-08-30T12:38:45.309Z,36.65
2022-08-30T12:39:53.588Z,36.47
2022-08-30T12:40:54.515Z,37.54
2022-08-30T12:42:12.318Z,36.37
2022-08-30T12:43:20.353Z,36.90
2022-08-30T12:44:25.835Z,37.75
2022-08-30T12:45:31.551Z,35.73
2022-08-30T12:46:34.502Z,35.73
2022-08-30T12:47:41.132Z,36.74
2022-08-30T12:48:44.846Z,36.71
2022-08-30T12:49:49.361Z,37.24
2022-08-30T12:50:57.708Z,35.59
2022-08-30T12:52:25.028Z,35.55
2022-08-30T12:53:31.098Z,36.29
2022-08-30T12:54:34.283Z,34.67
2022-08-30T12:55:52.211Z,35.20
2022-08-30T12:57:34.634Z,35.51
2022-08-30T12:58:10.122Z,35.33
2022-08-30T12:59:32.454Z,35.57
2022-08-30T13:00:42.936Z,37.22
2022-08-30T13:01:45.876Z,37.58
2022-08-30T13:02:52.106Z,36.08
2022-08-30T13:04:14.092Z,36.21
2022-08-30T13:05:44.970Z,36.13
2022-08-30T13:06:57.657Z,35.86
2022-08-30T13:08:28.443Z,37.14
2022-08-30T13:09:34.752Z,35.73
2022-08-30T13:10:52.991Z,36.98
2022-08-30T13:11:57.882Z,36.48
2022-08-30T13:13:03.463Z,35.77
2022-08-30T13:14:32.202Z,35.39
2022-08-30T13:15:38.558Z,36.42
2022-08-30T13:16:45.055Z,35.21
2022-08-30T13:17:46.105Z,35.15
2022-08-30T13:18:58.077Z,34.94
2022-08-30T13:20:13.069Z,34.50
2022-08-30T13:21:31.465Z,35.91
2022-08-30T13:22:40.407Z,35.28
2022-08-30T13:23:43.655Z,35.96
2022-08-30T13:24:45.723Z,34.74
2022-08-30T13:25:47.879Z,34.08
2022-08-30T13:26:50.692Z,34.47
2022-08-30T13:27:53.000Z,34.28
2022-08-30T13:28:57.918Z,36.31
2022-08-30T13:30:13.720Z,34.46
2022-08-30T13:31:15.079Z,34.71
2022-08-30T13:32:19.479Z,34.40
2022-08-30T13:33:21.876Z,34.89
2022-08-30T13:34:24.478Z,34.44
2022-08-30T13:35:29.789Z,35.29
2022-08-30T13:36:35.500Z,35.47
2022-08-30T13:37:49.432Z,34.81
2022-08-30T13:38:43.771Z,35.31
2022-08-30T13:39:46.894Z,34.27
2022-08-30T13:40:49.351Z,34.58
2022-08-30T13:41:51.758Z,34.55
2022-08-30T13:42:53.862Z,34.55
2022-08-30T13:44:14.081Z,34.07
2022-08-30T13:45:01.766Z,34.44
2022-08-30T13:46:05.297Z,34.10
2022-08-30T13:48:16.176Z,33.26
2022-08-30T13:49:43.481Z,33.69
2022-08-30T13:50:32.381Z,32.75
2022-08-30T13:51:35.780Z,32.07
2022-08-30T13:52:38.635Z,33.21
2022-08-30T13:53:56.753Z,33.23
2022-08-30T13:54:45.240Z,31.95
2022-08-30T13:55:48.164Z,33.50
2022-08-30T13:56:53.954Z,32.50
2022-08-30T13:57:57.682Z,32.29
2022-08-30T13:59:02.802Z,33.34
2022-08-30T14:00:08.493Z,33.47
2022-08-30T14:01:13.163Z,34.73
2022-08-30T14:02:15.507Z,33.42
2022-08-30T14:03:17.767Z,33.08
2022-08-30T14:04:21.558Z,32.68
2022-08-30T14:05:50.582Z,33.03
2022-08-30T14:06:37.214Z,32.81
2022-08-30T14:07:42.356Z,32.89
2022-08-30T14:08:47.697Z,32.79
2022-08-30T14:09:49.194Z,33.25
2022-08-30T14:10:52.206Z,32.71
2022-08-30T14:11:54.627Z,33.17
2022-08-30T14:13:08.087Z,32.73
2022-08-30T14:14:32.455Z,34.13
2022-08-30T14:15:08.015Z,34.07
2022-08-30T14:16:27.565Z,34.22
2022-08-30T14:17:18.811Z,32.91
2022-08-30T14:18:21.282Z,33.74